sensor_id;sensor_type;location;lat;lon;timestamp;P1;durP1;ratioP1;P2;durP2;ratioP2
47804;SDS011;33568;45.286;9.900;2024-02-15T00:01:11;48.55;;;35.28;;
47804;SDS011;33568;45.286;9.900;2024-02-15T00:03:37;45.00;;;34.47;;
47804;SDS011;33568;45.286;9.900;2024-02-15T00:06:03;48.05;;;35.78;;
47804;SDS011;33568;45.286;9.900;2024-02-15T00:10:56;45.47;;;33.90;;
47804;SDS011;33568;45.286;9.900;2024-02-15T00:13:22;45.95;;;35.83;;
47804;SDS011;33568;45.286;9.900;2024-02-15T00:15:49;53.50;;;36.92;;
47804;SDS011;33568;45.286;9.900;2024-02-15T00:18:16;55.70;;;35.97;;
47804;SDS011;33568;45.286;9.900;2024-02-15T00:20:42;48.45;;;37.10;;
47804;SDS011;33568;45.286;9.900;2024-02-15T00:23:10;47.35;;;37.33;;
47804;SDS011;33568;45.286;9.900;2024-02-15T00:25:36;50.67;;;38.15;;
47804;SDS011;33568;45.286;9.900;2024-02-15T00:28:03;48.78;;;37.65;;
47804;SDS011;33568;45.286;9.900;2024-02-15T00:30:29;47.47;;;36.00;;
47804;SDS011;33568;45.286;9.900;2024-02-15T00:32:57;51.63;;;37.60;;
47804;SDS011;33568;45.286;9.900;2024-02-15T00:35:23;48.28;;;37.05;;
47804;SDS011;33568;45.286;9.900;2024-02-15T00:37:50;50.70;;;38.03;;
47804;SDS011;33568;45.286;9.900;2024-02-15T00:40:17;50.67;;;37.58;;
47804;SDS011;33568;45.286;9.900;2024-02-15T00:45:09;45.30;;;34.30;;
47804;SDS011;33568;45.286;9.900;2024-02-15T00:47:36;53.47;;;38.38;;
47804;SDS011;33568;45.286;9.900;2024-02-15T00:50:04;46.38;;;35.58;;
47804;SDS011;33568;45.286;9.900;2024-02-15T00:52:31;58.22;;;38.05;;
47804;SDS011;33568;45.286;9.900;2024-02-15T00:54:57;52.17;;;35.42;;
47804;SDS011;33568;45.286;9.900;2024-02-15T00:57:23;54.83;;;37.83;;
47804;SDS011;33568;45.286;9.900;2024-02-15T01:02:17;55.55;;;37.90;;
47804;SDS011;33568;45.286;9.900;2024-02-15T01:04:44;54.40;;;40.53;;
47804;SDS011;33568;45.286;9.900;2024-02-15T01:07:13;63.80;;;39.20;;
47804;SDS011;33568;45.286;9.900;2024-02-15T01:09:39;59.15;;;40.50;;
47804;SDS011;33568;45.286;9.900;2024-02-15T01:12:06;55.92;;;37.53;;
47804;SDS011;33568;45.286;9.900;2024-02-15T01:14:32;44.35;;;35.85;;
47804;SDS011;33568;45.286;9.900;2024-02-15T01:16:59;41.58;;;33.10;;
47804;SDS011;33568;45.286;9.900;2024-02-15T01:19:25;42.88;;;33.83;;
47804;SDS011;33568;45.286;9.900;2024-02-15T01:21:51;49.00;;;36.10;;
47804;SDS011;33568;45.286;9.900;2024-02-15T01:24:19;49.30;;;37.20;;
47804;SDS011;33568;45.286;9.900;2024-02-15T01:26:45;59.80;;;42.72;;
47804;SDS011;33568;45.286;9.900;2024-02-15T01:29:13;58.40;;;39.53;;
47804;SDS011;33568;45.286;9.900;2024-02-15T01:31:40;55.25;;;41.00;;
47804;SDS011;33568;45.286;9.900;2024-02-15T01:34:06;57.22;;;40.60;;
47804;SDS011;33568;45.286;9.900;2024-02-15T01:36:33;57.95;;;38.83;;
47804;SDS011;33568;45.286;9.900;2024-02-15T01:41:25;52.70;;;38.17;;
47804;SDS011;33568;45.286;9.900;2024-02-15T01:43:51;53.70;;;37.08;;
47804;SDS011;33568;45.286;9.900;2024-02-15T01:46:18;54.78;;;41.42;;
47804;SDS011;33568;45.286;9.900;2024-02-15T01:48:46;58.88;;;39.58;;
47804;SDS011;33568;45.286;9.900;2024-02-15T01:51:13;55.75;;;39.28;;
47804;SDS011;33568;45.286;9.900;2024-02-15T01:53:41;52.30;;;37.50;;
47804;SDS011;33568;45.286;9.900;2024-02-15T01:58:34;46.80;;;36.42;;
47804;SDS011;33568;45.286;9.900;2024-02-15T02:01:02;49.75;;;36.63;;
47804;SDS011;33568;45.286;9.900;2024-02-15T02:03:30;57.30;;;38.53;;
47804;SDS011;33568;45.286;9.900;2024-02-15T02:05:56;49.25;;;37.58;;
47804;SDS011;33568;45.286;9.900;2024-02-15T02:08:23;68.50;;;37.30;;
47804;SDS011;33568;45.286;9.900;2024-02-15T02:10:49;51.83;;;37.88;;
47804;SDS011;33568;45.286;9.900;2024-02-15T02:13:17;52.00;;;35.83;;
47804;SDS011;33568;45.286;9.900;2024-02-15T02:15:44;51.00;;;37.83;;
47804;SDS011;33568;45.286;9.900;2024-02-15T02:18:11;49.47;;;37.10;;
47804;SDS011;33568;45.286;9.900;2024-02-15T02:20:37;49.78;;;36.00;;
47804;SDS011;33568;45.286;9.900;2024-02-15T02:23:07;53.88;;;37.33;;
47804;SDS011;33568;45.286;9.900;2024-02-15T02:25:39;50.92;;;36.80;;
47804;SDS011;33568;45.286;9.900;2024-02-15T02:28:08;50.38;;;36.08;;
47804;SDS011;33568;45.286;9.900;2024-02-15T02:30:34;58.00;;;37.53;;
47804;SDS011;33568;45.286;9.900;2024-02-15T02:33:01;55.83;;;41.33;;
47804;SDS011;33568;45.286;9.900;2024-02-15T02:35:27;53.78;;;38.10;;
47804;SDS011;33568;45.286;9.900;2024-02-15T02:37:56;64.40;;;39.33;;
47804;SDS011;33568;45.286;9.900;2024-02-15T02:40:22;53.53;;;35.38;;
47804;SDS011;33568;45.286;9.900;2024-02-15T02:42:53;52.42;;;36.53;;
47804;SDS011;33568;45.286;9.900;2024-02-15T02:45:25;47.13;;;35.27;;
47804;SDS011;33568;45.286;9.900;2024-02-15T02:47:52;47.97;;;35.63;;
47804;SDS011;33568;45.286;9.900;2024-02-15T02:50:19;57.10;;;35.97;;
47804;SDS011;33568;45.286;9.900;2024-02-15T02:52:47;50.10;;;35.83;;
47804;SDS011;33568;45.286;9.900;2024-02-15T02:55:14;50.85;;;36.97;;
47804;SDS011;33568;45.286;9.900;2024-02-15T02:57:41;48.75;;;36.83;;
47804;SDS011;33568;45.286;9.900;2024-02-15T03:00:09;52.70;;;35.65;;
47804;SDS011;33568;45.286;9.900;2024-02-15T03:02:42;55.17;;;38.15;;
47804;SDS011;33568;45.286;9.900;2024-02-15T03:05:09;56.72;;;37.22;;
47804;SDS011;33568;45.286;9.900;2024-02-15T03:07:37;54.80;;;39.85;;
47804;SDS011;33568;45.286;9.900;2024-02-15T03:10:06;50.63;;;36.25;;
47804;SDS011;33568;45.286;9.900;2024-02-15T03:12:34;51.25;;;36.45;;
47804;SDS011;33568;45.286;9.900;2024-02-15T03:15:05;52.28;;;35.65;;
47804;SDS011;33568;45.286;9.900;2024-02-15T03:17:39;51.45;;;38.58;;
47804;SDS011;33568;45.286;9.900;2024-02-15T03:20:10;58.67;;;36.70;;
47804;SDS011;33568;45.286;9.900;2024-02-15T03:22:56;48.63;;;37.60;;
47804;SDS011;33568;45.286;9.900;2024-02-15T03:25:23;52.28;;;37.58;;
47804;SDS011;33568;45.286;9.900;2024-02-15T03:27:51;48.10;;;35.53;;
47804;SDS011;33568;45.286;9.900;2024-02-15T03:30:19;50.30;;;37.90;;
47804;SDS011;33568;45.286;9.900;2024-02-15T03:32:46;51.08;;;38.08;;
47804;SDS011;33568;45.286;9.900;2024-02-15T03:35:24;50.63;;;37.50;;
47804;SDS011;33568;45.286;9.900;2024-02-15T03:37:52;54.08;;;37.55;;
47804;SDS011;33568;45.286;9.900;2024-02-15T03:40:22;49.67;;;35.75;;
47804;SDS011;33568;45.286;9.900;2024-02-15T03:42:53;47.10;;;34.85;;
47804;SDS011;33568;45.286;9.900;2024-02-15T03:45:19;48.75;;;36.80;;
47804;SDS011;33568;45.286;9.900;2024-02-15T03:47:46;48.03;;;35.20;;
47804;SDS011;33568;45.286;9.900;2024-02-15T03:50:13;51.25;;;36.40;;
47804;SDS011;33568;45.286;9.900;2024-02-15T03:52:40;48.38;;;35.80;;
47804;SDS011;33568;45.286;9.900;2024-02-15T03:55:07;48.42;;;36.25;;
47804;SDS011;33568;45.286;9.900;2024-02-15T03:57:34;46.33;;;34.95;;
47804;SDS011;33568;45.286;9.900;2024-02-15T04:00:02;48.83;;;34.25;;
47804;SDS011;33568;45.286;9.900;2024-02-15T04:02:35;43.70;;;33.20;;
47804;SDS011;33568;45.286;9.900;2024-02-15T04:05:02;41.17;;;32.50;;
47804;SDS011;33568;45.286;9.900;2024-02-15T04:07:30;44.63;;;31.80;;
47804;SDS011;33568;45.286;9.900;2024-02-15T04:09:57;50.97;;;33.92;;
47804;SDS011;33568;45.286;9.900;2024-02-15T04:12:25;55.42;;;40.38;;
47804;SDS011;33568;45.286;9.900;2024-02-15T04:14:52;55.88;;;39.38;;
47804;SDS011;33568;45.286;9.900;2024-02-15T04:17:20;58.88;;;40.05;;
47804;SDS011;33568;45.286;9.900;2024-02-15T04:19:47;56.50;;;40.55;;
47804;SDS011;33568;45.286;9.900;2024-02-15T04:22:16;52.63;;;39.25;;
47804;SDS011;33568;45.286;9.900;2024-02-15T04:24:43;53.45;;;39.92;;
47804;SDS011;33568;45.286;9.900;2024-02-15T04:27:11;53.45;;;39.90;;
47804;SDS011;33568;45.286;9.900;2024-02-15T04:29:38;56.28;;;40.88;;
47804;SDS011;33568;45.286;9.900;2024-02-15T04:32:10;53.72;;;40.53;;
47804;SDS011;33568;45.286;9.900;2024-02-15T04:34:37;50.15;;;38.38;;
47804;SDS011;33568;45.286;9.900;2024-02-15T04:37:04;51.58;;;38.17;;
47804;SDS011;33568;45.286;9.900;2024-02-15T04:39:36;51.22;;;38.03;;
47804;SDS011;33568;45.286;9.900;2024-02-15T04:42:03;52.28;;;37.05;;
47804;SDS011;33568;45.286;9.900;2024-02-15T04:44:32;50.72;;;36.58;;
47804;SDS011;33568;45.286;9.900;2024-02-15T04:47:03;50.17;;;36.78;;
47804;SDS011;33568;45.286;9.900;2024-02-15T04:49:30;50.95;;;37.33;;
47804;SDS011;33568;45.286;9.900;2024-02-15T04:51:57;48.42;;;37.70;;
47804;SDS011;33568;45.286;9.900;2024-02-15T04:54:24;46.70;;;34.15;;
47804;SDS011;33568;45.286;9.900;2024-02-15T04:56:52;52.65;;;36.53;;
47804;SDS011;33568;45.286;9.900;2024-02-15T04:59:20;51.55;;;37.10;;
47804;SDS011;33568;45.286;9.900;2024-02-15T05:01:47;45.95;;;35.55;;
47804;SDS011;33568;45.286;9.900;2024-02-15T05:04:15;53.50;;;36.55;;
47804;SDS011;33568;45.286;9.900;2024-02-15T05:09:08;52.20;;;34.10;;
47804;SDS011;33568;45.286;9.900;2024-02-15T05:11:39;49.80;;;35.83;;
47804;SDS011;33568;45.286;9.900;2024-02-15T05:14:13;55.92;;;35.90;;
47804;SDS011;33568;45.286;9.900;2024-02-15T05:16:46;45.97;;;34.67;;
47804;SDS011;33568;45.286;9.900;2024-02-15T05:19:16;51.20;;;34.80;;
47804;SDS011;33568;45.286;9.900;2024-02-15T05:21:43;45.38;;;33.80;;
47804;SDS011;33568;45.286;9.900;2024-02-15T05:24:12;39.13;;;31.60;;
47804;SDS011;33568;45.286;9.900;2024-02-15T05:26:40;44.05;;;31.42;;
47804;SDS011;33568;45.286;9.900;2024-02-15T05:29:09;43.78;;;33.72;;
47804;SDS011;33568;45.286;9.900;2024-02-15T05:31:36;40.53;;;31.73;;
47804;SDS011;33568;45.286;9.900;2024-02-15T05:34:05;46.35;;;34.22;;
47804;SDS011;33568;45.286;9.900;2024-02-15T05:36:37;45.83;;;32.25;;
47804;SDS011;33568;45.286;9.900;2024-02-15T05:39:04;42.30;;;31.17;;
47804;SDS011;33568;45.286;9.900;2024-02-15T05:44:00;40.97;;;29.85;;
47804;SDS011;33568;45.286;9.900;2024-02-15T05:46:27;37.63;;;28.67;;
47804;SDS011;33568;45.286;9.900;2024-02-15T05:48:56;35.67;;;28.60;;
47804;SDS011;33568;45.286;9.900;2024-02-15T05:51:23;46.83;;;30.98;;
47804;SDS011;33568;45.286;9.900;2024-02-15T05:53:49;38.75;;;29.85;;
47804;SDS011;33568;45.286;9.900;2024-02-15T05:56:15;47.38;;;32.88;;
47804;SDS011;33568;45.286;9.900;2024-02-15T05:58:42;43.97;;;33.72;;
47804;SDS011;33568;45.286;9.900;2024-02-15T06:03:37;49.97;;;35.33;;
47804;SDS011;33568;45.286;9.900;2024-02-15T06:06:04;44.42;;;33.33;;
47804;SDS011;33568;45.286;9.900;2024-02-15T06:08:36;70.80;;;41.47;;
47804;SDS011;33568;45.286;9.900;2024-02-15T06:11:03;70.47;;;48.60;;
47804;SDS011;33568;45.286;9.900;2024-02-15T06:13:31;58.15;;;41.25;;
47804;SDS011;33568;45.286;9.900;2024-02-15T06:15:57;45.60;;;33.00;;
47804;SDS011;33568;45.286;9.900;2024-02-15T06:20:52;42.88;;;26.58;;
47804;SDS011;33568;45.286;9.900;2024-02-15T06:23:18;36.05;;;25.88;;
47804;SDS011;33568;45.286;9.900;2024-02-15T06:25:50;40.35;;;30.15;;
47804;SDS011;33568;45.286;9.900;2024-02-15T06:28:22;38.40;;;28.80;;
47804;SDS011;33568;45.286;9.900;2024-02-15T06:31:07;38.25;;;28.02;;
47804;SDS011;33568;45.286;9.900;2024-02-15T06:33:53;36.35;;;28.92;;
47804;SDS011;33568;45.286;9.900;2024-02-15T06:39:39;33.65;;;26.77;;
47804;SDS011;33568;45.286;9.900;2024-02-15T06:42:12;43.05;;;27.65;;
47804;SDS011;33568;45.286;9.900;2024-02-15T06:44:42;35.33;;;28.02;;
47804;SDS011;33568;45.286;9.900;2024-02-15T06:47:09;34.63;;;28.48;;
47804;SDS011;33568;45.286;9.900;2024-02-15T06:49:39;36.13;;;28.92;;
47804;SDS011;33568;45.286;9.900;2024-02-15T06:52:09;34.97;;;27.05;;
47804;SDS011;33568;45.286;9.900;2024-02-15T06:54:40;40.05;;;27.45;;
47804;SDS011;33568;45.286;9.900;2024-02-15T06:57:07;34.40;;;28.20;;
47804;SDS011;33568;45.286;9.900;2024-02-15T06:59:34;36.90;;;27.83;;
47804;SDS011;33568;45.286;9.900;2024-02-15T07:02:02;33.97;;;27.63;;
47804;SDS011;33568;45.286;9.900;2024-02-15T07:04:33;34.67;;;27.40;;
47804;SDS011;33568;45.286;9.900;2024-02-15T07:07:00;39.80;;;27.98;;
47804;SDS011;33568;45.286;9.900;2024-02-15T07:09:27;37.60;;;26.65;;
47804;SDS011;33568;45.286;9.900;2024-02-15T07:11:54;34.47;;;26.55;;
47804;SDS011;33568;45.286;9.900;2024-02-15T07:14:20;35.78;;;25.75;;
47804;SDS011;33568;45.286;9.900;2024-02-15T07:16:47;32.15;;;22.10;;
47804;SDS011;33568;45.286;9.900;2024-02-15T07:19:15;29.13;;;22.33;;
47804;SDS011;33568;45.286;9.900;2024-02-15T07:21:42;29.35;;;24.40;;
47804;SDS011;33568;45.286;9.900;2024-02-15T07:24:09;31.13;;;26.13;;
47804;SDS011;33568;45.286;9.900;2024-02-15T07:26:36;31.90;;;26.52;;
47804;SDS011;33568;45.286;9.900;2024-02-15T07:31:31;30.13;;;24.35;;
47804;SDS011;33568;45.286;9.900;2024-02-15T07:34:01;32.53;;;26.85;;
47804;SDS011;33568;45.286;9.900;2024-02-15T07:36:29;33.90;;;27.23;;
47804;SDS011;33568;45.286;9.900;2024-02-15T07:38:55;42.95;;;31.38;;
47804;SDS011;33568;45.286;9.900;2024-02-15T07:41:26;41.10;;;29.88;;
47804;SDS011;33568;45.286;9.900;2024-02-15T07:43:53;39.95;;;29.00;;
47804;SDS011;33568;45.286;9.900;2024-02-15T07:46:21;41.03;;;29.13;;
47804;SDS011;33568;45.286;9.900;2024-02-15T07:48:48;36.85;;;28.13;;
47804;SDS011;33568;45.286;9.900;2024-02-15T07:51:18;45.13;;;28.95;;
47804;SDS011;33568;45.286;9.900;2024-02-15T07:53:46;51.33;;;34.30;;
47804;SDS011;33568;45.286;9.900;2024-02-15T07:56:13;48.95;;;33.17;;
47804;SDS011;33568;45.286;9.900;2024-02-15T07:58:41;47.53;;;33.50;;
47804;SDS011;33568;45.286;9.900;2024-02-15T08:01:08;55.47;;;39.65;;
47804;SDS011;33568;45.286;9.900;2024-02-15T08:03:35;61.30;;;41.33;;
47804;SDS011;33568;45.286;9.900;2024-02-15T08:06:02;83.47;;;42.88;;
47804;SDS011;33568;45.286;9.900;2024-02-15T08:08:33;64.95;;;44.75;;
47804;SDS011;33568;45.286;9.900;2024-02-15T08:11:02;59.88;;;41.38;;
47804;SDS011;33568;45.286;9.900;2024-02-15T08:13:29;66.57;;;42.17;;
47804;SDS011;33568;45.286;9.900;2024-02-15T08:15:56;65.28;;;40.40;;
47804;SDS011;33568;45.286;9.900;2024-02-15T08:18:22;59.30;;;39.22;;
47804;SDS011;33568;45.286;9.900;2024-02-15T08:20:49;61.58;;;39.63;;
47804;SDS011;33568;45.286;9.900;2024-02-15T08:23:16;93.47;;;41.13;;
47804;SDS011;33568;45.286;9.900;2024-02-15T08:25:43;64.43;;;41.92;;
47804;SDS011;33568;45.286;9.900;2024-02-15T08:28:09;66.15;;;42.42;;
47804;SDS011;33568;45.286;9.900;2024-02-15T08:30:36;65.60;;;43.35;;
47804;SDS011;33568;45.286;9.900;2024-02-15T08:33:03;53.55;;;40.13;;
47804;SDS011;33568;45.286;9.900;2024-02-15T08:35:29;50.90;;;37.22;;
47804;SDS011;33568;45.286;9.900;2024-02-15T08:37:56;48.08;;;34.53;;
47804;SDS011;33568;45.286;9.900;2024-02-15T08:40:22;44.33;;;32.05;;
47804;SDS011;33568;45.286;9.900;2024-02-15T08:42:51;48.85;;;31.65;;
47804;SDS011;33568;45.286;9.900;2024-02-15T08:45:17;46.10;;;31.88;;
47804;SDS011;33568;45.286;9.900;2024-02-15T08:47:43;44.60;;;30.40;;
47804;SDS011;33568;45.286;9.900;2024-02-15T08:50:11;50.83;;;34.78;;
47804;SDS011;33568;45.286;9.900;2024-02-15T08:55:05;45.92;;;35.42;;
47804;SDS011;33568;45.286;9.900;2024-02-15T08:57:34;47.45;;;33.53;;
47804;SDS011;33568;45.286;9.900;2024-02-15T09:00:02;48.10;;;34.15;;
47804;SDS011;33568;45.286;9.900;2024-02-15T09:02:35;43.10;;;33.83;;
47804;SDS011;33568;45.286;9.900;2024-02-15T09:05:03;41.03;;;33.47;;
47804;SDS011;33568;45.286;9.900;2024-02-15T09:07:30;44.65;;;34.08;;
47804;SDS011;33568;45.286;9.900;2024-02-15T09:09:56;46.03;;;36.00;;
47804;SDS011;33568;45.286;9.900;2024-02-15T09:12:23;46.47;;;35.92;;
47804;SDS011;33568;45.286;9.900;2024-02-15T09:14:51;44.03;;;35.03;;
47804;SDS011;33568;45.286;9.900;2024-02-15T09:17:17;44.08;;;33.92;;
47804;SDS011;33568;45.286;9.900;2024-02-15T09:19:46;49.78;;;36.17;;
47804;SDS011;33568;45.286;9.900;2024-02-15T09:22:15;47.47;;;36.65;;
47804;SDS011;33568;45.286;9.900;2024-02-15T09:27:08;44.22;;;35.50;;
47804;SDS011;33568;45.286;9.900;2024-02-15T09:29:38;46.65;;;35.20;;
47804;SDS011;33568;45.286;9.900;2024-02-15T09:32:08;46.92;;;37.55;;
47804;SDS011;33568;45.286;9.900;2024-02-15T09:34:34;62.65;;;40.10;;
47804;SDS011;33568;45.286;9.900;2024-02-15T09:37:00;47.53;;;38.70;;
47804;SDS011;33568;45.286;9.900;2024-02-15T09:39:27;51.13;;;39.75;;
47804;SDS011;33568;45.286;9.900;2024-02-15T09:41:54;44.63;;;38.90;;
47804;SDS011;33568;45.286;9.900;2024-02-15T09:44:25;52.47;;;39.38;;
47804;SDS011;33568;45.286;9.900;2024-02-15T09:47:04;52.08;;;37.22;;
47804;SDS011;33568;45.286;9.900;2024-02-15T09:49:37;46.45;;;37.53;;
47804;SDS011;33568;45.286;9.900;2024-02-15T09:52:08;39.72;;;35.00;;
47804;SDS011;33568;45.286;9.900;2024-02-15T09:54:41;51.63;;;35.78;;
47804;SDS011;33568;45.286;9.900;2024-02-15T09:57:09;43.72;;;33.95;;
47804;SDS011;33568;45.286;9.900;2024-02-15T09:59:39;41.60;;;33.85;;
47804;SDS011;33568;45.286;9.900;2024-02-15T10:02:07;40.42;;;32.08;;
47804;SDS011;33568;45.286;9.900;2024-02-15T10:04:37;43.35;;;33.38;;
47804;SDS011;33568;45.286;9.900;2024-02-15T10:07:05;40.63;;;31.83;;
47804;SDS011;33568;45.286;9.900;2024-02-15T10:09:34;39.67;;;31.50;;
47804;SDS011;33568;45.286;9.900;2024-02-15T10:12:04;39.78;;;31.50;;
47804;SDS011;33568;45.286;9.900;2024-02-15T10:14:35;42.60;;;32.55;;
47804;SDS011;33568;45.286;9.900;2024-02-15T10:17:05;36.13;;;28.77;;
47804;SDS011;33568;45.286;9.900;2024-02-15T10:19:37;43.15;;;30.48;;
47804;SDS011;33568;45.286;9.900;2024-02-15T10:22:07;33.35;;;28.52;;
47804;SDS011;33568;45.286;9.900;2024-02-15T10:24:35;34.25;;;30.52;;
47804;SDS011;33568;45.286;9.900;2024-02-15T10:27:06;35.50;;;30.33;;
47804;SDS011;33568;45.286;9.900;2024-02-15T10:29:33;39.97;;;30.48;;
47804;SDS011;33568;45.286;9.900;2024-02-15T10:32:00;36.28;;;28.55;;
47804;SDS011;33568;45.286;9.900;2024-02-15T10:34:28;34.70;;;31.05;;
47804;SDS011;33568;45.286;9.900;2024-02-15T10:37:17;35.28;;;29.85;;
47804;SDS011;33568;45.286;9.900;2024-02-15T10:39:42;34.30;;;28.85;;
47804;SDS011;33568;45.286;9.900;2024-02-15T10:42:09;33.03;;;28.45;;
47804;SDS011;33568;45.286;9.900;2024-02-15T10:44:38;32.92;;;27.63;;
47804;SDS011;33568;45.286;9.900;2024-02-15T10:47:06;32.67;;;27.67;;
47804;SDS011;33568;45.286;9.900;2024-02-15T10:49:33;30.92;;;27.35;;
47804;SDS011;33568;45.286;9.900;2024-02-15T10:52:01;32.83;;;28.08;;
47804;SDS011;33568;45.286;9.900;2024-02-15T10:57:20;31.88;;;27.50;;
47804;SDS011;33568;45.286;9.900;2024-02-15T11:02:29;31.90;;;28.20;;
47804;SDS011;33568;45.286;9.900;2024-02-15T11:05:07;40.50;;;29.58;;
47804;SDS011;33568;45.286;9.900;2024-02-15T11:07:38;32.05;;;28.70;;
47804;SDS011;33568;45.286;9.900;2024-02-15T11:10:05;35.22;;;28.00;;
47804;SDS011;33568;45.286;9.900;2024-02-15T11:12:34;35.97;;;28.77;;
47804;SDS011;33568;45.286;9.900;2024-02-15T11:15:01;30.38;;;26.92;;
47804;SDS011;33568;45.286;9.900;2024-02-15T11:20:05;36.15;;;30.08;;
47804;SDS011;33568;45.286;9.900;2024-02-15T11:22:39;35.45;;;29.95;;
47804;SDS011;33568;45.286;9.900;2024-02-15T11:25:08;32.90;;;28.98;;
47804;SDS011;33568;45.286;9.900;2024-02-15T11:27:37;37.33;;;29.75;;
47804;SDS011;33568;45.286;9.900;2024-02-15T11:30:05;33.67;;;30.05;;
47804;SDS011;33568;45.286;9.900;2024-02-15T11:32:42;34.88;;;30.38;;
47804;SDS011;33568;45.286;9.900;2024-02-15T11:35:15;36.22;;;31.50;;
47804;SDS011;33568;45.286;9.900;2024-02-15T11:42:51;34.35;;;30.42;;
47804;SDS011;33568;45.286;9.900;2024-02-15T11:45:23;34.72;;;29.58;;
47804;SDS011;33568;45.286;9.900;2024-02-15T11:47:51;33.80;;;30.17;;
47804;SDS011;33568;45.286;9.900;2024-02-15T11:50:20;33.00;;;29.42;;
47804;SDS011;33568;45.286;9.900;2024-02-15T11:52:48;34.60;;;30.23;;
47804;SDS011;33568;45.286;9.900;2024-02-15T11:55:18;37.85;;;30.40;;
47804;SDS011;33568;45.286;9.900;2024-02-15T11:57:58;35.38;;;29.33;;
47804;SDS011;33568;45.286;9.900;2024-02-15T12:00:42;38.90;;;32.75;;
47804;SDS011;33568;45.286;9.900;2024-02-15T12:03:27;33.72;;;30.10;;
47804;SDS011;33568;45.286;9.900;2024-02-15T12:06:16;40.67;;;31.35;;
47804;SDS011;33568;45.286;9.900;2024-02-15T12:09:02;39.33;;;32.28;;
47804;SDS011;33568;45.286;9.900;2024-02-15T12:12:09;40.95;;;30.95;;
47804;SDS011;33568;45.286;9.900;2024-02-15T12:17:45;36.50;;;29.88;;
47804;SDS011;33568;45.286;9.900;2024-02-15T12:20:30;42.67;;;31.70;;
47804;SDS011;33568;45.286;9.900;2024-02-15T12:22:57;33.60;;;28.15;;
47804;SDS011;33568;45.286;9.900;2024-02-15T12:25:26;40.20;;;28.38;;
47804;SDS011;33568;45.286;9.900;2024-02-15T12:27:53;37.75;;;29.60;;
47804;SDS011;33568;45.286;9.900;2024-02-15T12:30:24;33.45;;;29.77;;
47804;SDS011;33568;45.286;9.900;2024-02-15T12:33:08;33.65;;;28.42;;
47804;SDS011;33568;45.286;9.900;2024-02-15T12:35:36;34.17;;;29.98;;
47804;SDS011;33568;45.286;9.900;2024-02-15T12:38:03;32.83;;;29.08;;
47804;SDS011;33568;45.286;9.900;2024-02-15T12:40:35;37.35;;;32.20;;
47804;SDS011;33568;45.286;9.900;2024-02-15T12:43:02;40.83;;;34.03;;
47804;SDS011;33568;45.286;9.900;2024-02-15T12:45:32;40.85;;;32.72;;
47804;SDS011;33568;45.286;9.900;2024-02-15T12:48:06;40.75;;;32.75;;
47804;SDS011;33568;45.286;9.900;2024-02-15T12:50:33;40.05;;;32.72;;
47804;SDS011;33568;45.286;9.900;2024-02-15T12:53:00;43.88;;;33.53;;
47804;SDS011;33568;45.286;9.900;2024-02-15T12:55:35;41.42;;;34.08;;
47804;SDS011;33568;45.286;9.900;2024-02-15T12:58:03;54.45;;;34.35;;
47804;SDS011;33568;45.286;9.900;2024-02-15T13:00:34;49.63;;;33.70;;
47804;SDS011;33568;45.286;9.900;2024-02-15T13:03:06;46.28;;;32.85;;
47804;SDS011;33568;45.286;9.900;2024-02-15T13:05:36;44.08;;;33.60;;
47804;SDS011;33568;45.286;9.900;2024-02-15T13:08:03;42.25;;;35.55;;
47804;SDS011;33568;45.286;9.900;2024-02-15T13:10:38;41.17;;;33.53;;
47804;SDS011;33568;45.286;9.900;2024-02-15T13:13:05;43.25;;;34.63;;
47804;SDS011;33568;45.286;9.900;2024-02-15T13:15:32;46.63;;;34.78;;
47804;SDS011;33568;45.286;9.900;2024-02-15T13:20:25;41.73;;;35.13;;
47804;SDS011;33568;45.286;9.900;2024-02-15T13:23:06;45.42;;;35.10;;
47804;SDS011;33568;45.286;9.900;2024-02-15T13:25:34;45.33;;;34.70;;
47804;SDS011;33568;45.286;9.900;2024-02-15T13:28:07;47.38;;;34.60;;
47804;SDS011;33568;45.286;9.900;2024-02-15T13:30:36;46.08;;;35.78;;
47804;SDS011;33568;45.286;9.900;2024-02-15T13:33:02;45.10;;;34.60;;
47804;SDS011;33568;45.286;9.900;2024-02-15T13:35:29;48.67;;;34.83;;
47804;SDS011;33568;45.286;9.900;2024-02-15T13:37:56;43.45;;;35.72;;
47804;SDS011;33568;45.286;9.900;2024-02-15T13:40:25;43.95;;;34.63;;
47804;SDS011;33568;45.286;9.900;2024-02-15T13:42:57;43.90;;;36.05;;
47804;SDS011;33568;45.286;9.900;2024-02-15T13:45:26;44.88;;;34.97;;
47804;SDS011;33568;45.286;9.900;2024-02-15T13:47:56;40.55;;;34.63;;
47804;SDS011;33568;45.286;9.900;2024-02-15T13:50:23;47.53;;;35.42;;
47804;SDS011;33568;45.286;9.900;2024-02-15T13:52:50;48.78;;;36.10;;
47804;SDS011;33568;45.286;9.900;2024-02-15T13:55:17;43.78;;;34.05;;
47804;SDS011;33568;45.286;9.900;2024-02-15T13:57:45;43.40;;;33.75;;
47804;SDS011;33568;45.286;9.900;2024-02-15T14:00:15;41.13;;;33.67;;
47804;SDS011;33568;45.286;9.900;2024-02-15T14:02:51;42.70;;;34.15;;
47804;SDS011;33568;45.286;9.900;2024-02-15T14:05:22;46.95;;;36.08;;
47804;SDS011;33568;45.286;9.900;2024-02-15T14:07:57;47.35;;;33.67;;
47804;SDS011;33568;45.286;9.900;2024-02-15T14:10:35;43.70;;;32.60;;
47804;SDS011;33568;45.286;9.900;2024-02-15T14:13:02;46.40;;;34.38;;
47804;SDS011;33568;45.286;9.900;2024-02-15T14:15:29;45.63;;;33.40;;
47804;SDS011;33568;45.286;9.900;2024-02-15T14:17:56;44.10;;;31.88;;
47804;SDS011;33568;45.286;9.900;2024-02-15T14:20:23;45.85;;;32.85;;
47804;SDS011;33568;45.286;9.900;2024-02-15T14:22:50;37.90;;;32.20;;
47804;SDS011;33568;45.286;9.900;2024-02-15T14:25:24;42.85;;;34.70;;
47804;SDS011;33568;45.286;9.900;2024-02-15T14:27:53;45.03;;;33.80;;
47804;SDS011;33568;45.286;9.900;2024-02-15T14:30:20;41.78;;;30.80;;
47804;SDS011;33568;45.286;9.900;2024-02-15T14:33:05;42.05;;;32.30;;
47804;SDS011;33568;45.286;9.900;2024-02-15T14:35:37;44.15;;;33.95;;
47804;SDS011;33568;45.286;9.900;2024-02-15T14:38:11;44.17;;;32.88;;
47804;SDS011;33568;45.286;9.900;2024-02-15T14:40:39;43.70;;;33.22;;
47804;SDS011;33568;45.286;9.900;2024-02-15T14:43:06;46.45;;;33.97;;
47804;SDS011;33568;45.286;9.900;2024-02-15T14:45:41;44.97;;;32.28;;
47804;SDS011;33568;45.286;9.900;2024-02-15T14:48:07;41.85;;;32.50;;
47804;SDS011;33568;45.286;9.900;2024-02-15T14:50:39;47.60;;;35.08;;
47804;SDS011;33568;45.286;9.900;2024-02-15T14:53:06;44.38;;;31.38;;
47804;SDS011;33568;45.286;9.900;2024-02-15T14:55:36;41.78;;;33.30;;
47804;SDS011;33568;45.286;9.900;2024-02-15T14:58:08;40.67;;;31.45;;
47804;SDS011;33568;45.286;9.900;2024-02-15T15:00:35;53.05;;;33.92;;
47804;SDS011;33568;45.286;9.900;2024-02-15T15:03:03;41.45;;;33.90;;
47804;SDS011;33568;45.286;9.900;2024-02-15T15:05:33;41.40;;;33.83;;
47804;SDS011;33568;45.286;9.900;2024-02-15T15:08:18;54.28;;;34.33;;
47804;SDS011;33568;45.286;9.900;2024-02-15T15:11:03;48.90;;;36.42;;
47804;SDS011;33568;45.286;9.900;2024-02-15T15:13:48;46.60;;;37.53;;
47804;SDS011;33568;45.286;9.900;2024-02-15T15:16:14;47.25;;;35.60;;
47804;SDS011;33568;45.286;9.900;2024-02-15T15:18:43;49.00;;;35.15;;
47804;SDS011;33568;45.286;9.900;2024-02-15T15:21:12;48.22;;;36.47;;
47804;SDS011;33568;45.286;9.900;2024-02-15T15:23:39;58.08;;;38.08;;